createdAt,value
2022-09-07T00:01:25.812Z,73.35
2022-09-07T00:03:57.438Z,74.25
2022-09-07T00:06:24.628Z,73.76
2022-09-07T00:08:51.299Z,74.08
2022-09-07T00:11:21.025Z,74.26
2022-09-07T00:13:48.390Z,74.68
2022-09-07T00:18:55.449Z,74.30
2022-09-07T00:21:22.041Z,73.82
2022-09-07T00:23:49.903Z,73.67
2022-09-07T00:26:20.418Z,73.94
2022-09-07T00:28:47.807Z,73.91
2022-09-07T00:31:17.667Z,73.50
2022-09-07T00:33:44.788Z,73.70
2022-09-07T00:36:11.701Z,73.63
2022-09-07T00:38:38.604Z,73.68
2022-09-07T00:41:05.905Z,73.61
2022-09-07T00:43:39.011Z,73.55
2022-09-07T00:46:10.730Z,73.53
2022-09-07T00:48:45.178Z,73.63
2022-09-07T00:51:18.500Z,73.84
2022-09-07T00:53:53.809Z,73.85
2022-09-07T00:56:24.046Z,74.28
2022-09-07T00:58:51.654Z,74.18
2022-09-07T01:01:18.649Z,74.18
2022-09-07T01:03:48.925Z,74.08
2022-09-07T01:06:26.815Z,74.13
2022-09-07T01:08:56.528Z,73.53
2022-09-07T01:11:23.883Z,73.79
2022-09-07T01:13:51.874Z,73.72
2022-09-07T01:16:49.488Z,73.82
2022-09-07T01:19:55.842Z,73.66
2022-09-07T01:30:56.103Z,73.28
2022-09-07T01:39:04.497Z,74.47
2022-09-07T01:41:42.327Z,74.74
2022-09-07T01:47:02.752Z,74.82
2022-09-07T01:49:52.852Z,74.80
2022-09-07T01:52:44.276Z,74.41
2022-09-07T01:55:19.314Z,75.75
2022-09-07T01:57:53.978Z,75.42
2022-09-07T02:00:26.086Z,75.97
2022-09-07T02:03:00.183Z,75.93
2022-09-07T02:05:34.297Z,76.30
2022-09-07T02:08:08.861Z,76.01
2022-09-07T02:10:40.550Z,76.02
2022-09-07T02:13:16.313Z,76.33
2022-09-07T02:18:33.214Z,76.78
2022-09-07T02:21:02.722Z,76.49
2022-09-07T02:23:35.189Z,76.57
2022-09-07T02:26:07.021Z,76.78
2022-09-07T02:28:35.437Z,76.67
2022-09-07T02:31:02.268Z,76.91
2022-09-07T02:33:29.445Z,77.02
2022-09-07T02:35:56.544Z,77.20
2022-09-07T02:38:24.645Z,77.07
2022-09-07T02:40:54.577Z,77.11
2022-09-07T02:43:23.242Z,77.13
2022-09-07T02:46:23.509Z,77.17
2022-09-07T02:49:03.609Z,76.91
2022-09-07T02:57:37.784Z,77.51
2022-09-07T03:05:23.813Z,77.36
2022-09-07T03:08:14.732Z,77.68
2022-09-07T03:10:41.676Z,77.99
2022-09-07T03:13:08.241Z,77.74
2022-09-07T03:15:34.973Z,77.75
2022-09-07T03:18:01.559Z,78.00
2022-09-07T03:20:28.131Z,77.92
2022-09-07T03:22:54.717Z,77.56
2022-09-07T03:25:22.850Z,77.63
2022-09-07T03:27:49.408Z,77.47
2022-09-07T03:30:16.124Z,77.49
2022-09-07T03:32:42.674Z,77.45
2022-09-07T03:35:09.534Z,77.79
2022-09-07T03:37:37.096Z,78.02
2022-09-07T03:40:06.659Z,78.07
2022-09-07T03:42:33.558Z,78.79
2022-09-07T03:45:00.143Z,78.41
2022-09-07T03:47:26.794Z,78.96
2022-09-07T03:49:53.384Z,79.04
2022-09-07T03:52:19.979Z,78.94
2022-09-07T03:54:46.578Z,78.82
2022-09-07T03:57:13.460Z,78.81
2022-09-07T03:59:40.125Z,78.67
2022-09-07T04:02:06.840Z,78.64
2022-09-07T04:04:33.768Z,78.54
2022-09-07T04:07:00.315Z,78.59
2022-09-07T04:09:26.885Z,78.89
2022-09-07T04:11:53.465Z,78.48
2022-09-07T04:14:20.206Z,78.28
2022-09-07T04:16:47.048Z,78.42
2022-09-07T04:19:14.219Z,78.79
2022-09-07T04:21:40.947Z,79.00
2022-09-07T04:24:07.549Z,79.26
2022-09-07T04:26:36.303Z,79.05
2022-09-07T04:29:03.446Z,78.49
2022-09-07T04:31:30.561Z,79.28
2022-09-07T04:33:57.242Z,79.33
2022-09-07T04:36:25.268Z,79.53
2022-09-07T04:38:56.883Z,78.90
2022-09-07T04:41:23.843Z,79.50
2022-09-07T04:43:54.951Z,78.76
2022-09-07T04:49:00.480Z,78.75
2022-09-07T04:51:29.592Z,78.68
2022-09-07T04:53:58.104Z,78.67
2022-09-07T04:56:24.715Z,79.34
2022-09-07T04:58:51.804Z,78.90
2022-09-07T05:01:21.762Z,79.02
2022-09-07T05:03:48.945Z,78.69
2022-09-07T05:06:17.599Z,78.95
2022-09-07T05:08:47.569Z,79.55
2022-09-07T05:11:15.768Z,79.51
2022-09-07T05:13:42.690Z,79.02
2022-09-07T05:16:13.317Z,79.19
2022-09-07T05:18:39.940Z,79.08
2022-09-07T05:21:16.611Z,78.80
2022-09-07T05:23:43.966Z,78.69
2022-09-07T05:26:12.012Z,78.78
2022-09-07T05:28:39.276Z,78.63
2022-09-07T05:31:17.603Z,78.51
2022-09-07T05:36:35.739Z,78.30
2022-09-07T05:39:02.472Z,78.40
2022-09-07T05:41:29.100Z,78.38
2022-09-07T05:46:42.831Z,78.12
2022-09-07T05:49:10.020Z,78.08
2022-09-07T05:51:37.292Z,78.20
2022-09-07T05:54:04.321Z,78.08
2022-09-07T05:56:34.632Z,77.97
2022-09-07T05:59:01.199Z,78.09
2022-09-07T06:01:28.165Z,77.93
2022-09-07T06:03:54.754Z,78.23
2022-09-07T06:06:21.666Z,77.98
2022-09-07T06:08:51.077Z,77.64
2022-09-07T06:11:20.305Z,77.57
2022-09-07T06:13:47.257Z,78.58
2022-09-07T06:16:15.193Z,78.47
2022-09-07T06:18:44.352Z,78.12
2022-09-07T06:21:15.381Z,77.07
2022-09-07T06:23:43.562Z,77.11
2022-09-07T06:26:11.067Z,77.58
2022-09-07T06:28:40.696Z,77.54
2022-09-07T06:31:10.338Z,77.44
2022-09-07T06:33:37.109Z,77.30
2022-09-07T06:36:05.811Z,77.67
2022-09-07T06:38:34.672Z,77.75
2022-09-07T06:43:51.539Z,76.94
2022-09-07T06:49:04.921Z,76.50
2022-09-07T06:51:32.251Z,77.11
2022-09-07T06:56:48.437Z,77.00
2022-09-07T06:59:15.051Z,76.37
2022-09-07T07:01:41.602Z,76.65
2022-09-07T07:04:08.209Z,76.63
2022-09-07T07:06:36.467Z,75.04
2022-09-07T07:09:05.335Z,73.41
2022-09-07T07:11:31.953Z,72.40
2022-09-07T07:13:58.655Z,71.21
2022-09-07T07:16:25.440Z,70.09
2022-09-07T07:18:55.967Z,67.82
2022-09-07T07:21:23.228Z,67.62
2022-09-07T07:23:51.724Z,66.08
2022-09-07T07:26:20.975Z,65.09
2022-09-07T07:29:05.509Z,64.73
2022-09-07T07:31:33.743Z,63.32
2022-09-07T07:34:00.415Z,62.11
2022-09-07T07:36:28.240Z,60.61
2022-09-07T07:44:13.982Z,59.86
2022-09-07T07:46:40.643Z,59.42
2022-09-07T07:49:07.472Z,59.41
2022-09-07T07:52:49.959Z,58.57
2022-09-07T07:54:20.684Z,58.57
2022-09-07T07:56:47.344Z,59.12
2022-09-07T07:59:15.930Z,57.15
2022-09-07T08:01:43.913Z,56.63
2022-09-07T08:04:10.546Z,56.68
2022-09-07T08:06:37.825Z,55.18
2022-09-07T08:09:04.341Z,53.98
2022-09-07T08:11:31.659Z,53.56
2022-09-07T08:14:00.332Z,52.83
2022-09-07T08:16:26.984Z,53.00
2022-09-07T08:18:53.785Z,52.55
2022-09-07T08:21:20.405Z,52.29
2022-09-07T08:23:46.973Z,53.73
2022-09-07T08:26:13.528Z,54.92
2022-09-07T08:28:41.963Z,55.62
2022-09-07T08:31:11.991Z,56.49
2022-09-07T08:33:39.362Z,56.85
2022-09-07T08:36:08.327Z,57.00
2022-09-07T08:38:36.316Z,57.39
2022-09-07T08:41:21.352Z,58.06
2022-09-07T08:49:18.860Z,56.52
2022-09-07T08:54:22.549Z,55.08
2022-09-07T09:02:38.467Z,54.67
2022-09-07T09:05:21.231Z,54.75
2022-09-07T09:07:59.384Z,54.39
2022-09-07T09:10:36.594Z,54.29
2022-09-07T09:21:19.587Z,52.42
2022-09-07T09:23:48.914Z,51.66
2022-09-07T09:26:24.438Z,52.56
2022-09-07T09:28:51.313Z,53.55
2022-09-07T09:31:36.107Z,53.29
2022-09-07T09:36:43.927Z,52.31
2022-09-07T09:39:32.000Z,51.51
2022-09-07T09:42:14.377Z,49.47
2022-09-07T09:44:41.421Z,48.80
2022-09-07T09:47:30.704Z,48.33
2022-09-07T09:50:01.368Z,48.91
2022-09-07T09:52:34.768Z,48.27
2022-09-07T09:55:32.723Z,47.51
2022-09-07T10:04:00.482Z,46.18
2022-09-07T10:06:29.371Z,45.64
2022-09-07T10:08:58.662Z,45.32
2022-09-07T10:14:42.232Z,44.98
2022-09-07T10:17:27.523Z,45.15
2022-09-07T10:19:59.438Z,44.46
2022-09-07T10:22:47.521Z,45.30
2022-09-07T10:31:27.678Z,45.36
2022-09-07T10:55:30.489Z,46.14
2022-09-07T11:00:50.984Z,46.62
2022-09-07T11:14:12.899Z,47.58
2022-09-07T11:16:50.972Z,45.30
2022-09-07T11:19:36.962Z,46.16
2022-09-07T11:27:41.720Z,45.68
2022-09-07T11:30:18.659Z,46.61
2022-09-07T11:32:55.779Z,46.19
2022-09-07T11:35:52.288Z,46.96
2022-09-07T11:41:10.761Z,47.22
2022-09-07T11:44:01.715Z,45.76
2022-09-07T11:49:12.265Z,47.47
2022-09-07T11:51:46.607Z,46.61
2022-09-07T11:54:36.765Z,47.52
2022-09-07T13:31:14.033Z,49.11
2022-09-07T13:36:39.026Z,51.85
2022-09-07T13:39:09.622Z,52.86
2022-09-07T13:41:42.953Z,53.70
2022-09-07T13:44:23.687Z,53.09
2022-09-07T13:52:15.787Z,51.47
2022-09-07T13:54:58.645Z,51.40
2022-09-07T14:10:48.691Z,49.82
2022-09-07T14:13:15.286Z,49.82
2022-09-07T14:15:44.750Z,49.51
2022-09-07T14:18:29.047Z,49.67
2022-09-07T14:20:56.402Z,49.99
2022-09-07T14:23:29.850Z,49.91
2022-09-07T14:26:18.242Z,50.72
2022-09-07T14:28:46.561Z,50.66
2022-09-07T14:31:16.332Z,50.38
2022-09-07T14:33:50.271Z,50.40
2022-09-07T14:36:41.647Z,51.21
2022-09-07T14:39:06.910Z,50.99
2022-09-07T14:41:38.448Z,51.47
2022-09-07T14:44:05.087Z,51.31
2022-09-07T14:46:34.299Z,51.99
2022-09-07T14:49:04.984Z,51.95
2022-09-07T14:51:36.484Z,51.64
2022-09-07T14:54:07.377Z,51.84
2022-09-07T14:56:37.275Z,51.73
2022-09-07T14:59:43.668Z,51.52
2022-09-07T15:04:47.519Z,51.96
2022-09-07T15:07:45.736Z,51.66
2022-09-07T15:10:14.142Z,51.56
2022-09-07T15:12:44.044Z,51.61
2022-09-07T15:15:25.105Z,51.63
2022-09-07T15:17:54.554Z,51.67
2022-09-07T15:20:43.249Z,51.91
2022-09-07T15:23:15.952Z,51.75
2022-09-07T15:25:49.643Z,52.22
2022-09-07T15:34:11.365Z,51.78
2022-09-07T15:36:40.595Z,51.73
2022-09-07T15:39:08.175Z,52.16
2022-09-07T15:41:34.829Z,52.50
2022-09-07T15:44:01.529Z,52.44
2022-09-07T15:46:28.066Z,51.93
2022-09-07T15:48:56.015Z,52.37
2022-09-07T15:54:13.252Z,53.95
2022-09-07T15:56:41.463Z,54.69
2022-09-07T15:59:11.182Z,55.22
2022-09-07T16:01:55.286Z,55.58
2022-09-07T16:04:24.103Z,55.73
2022-09-07T16:06:50.823Z,56.72
2022-09-07T16:09:17.862Z,56.66
2022-09-07T16:11:50.034Z,56.27
2022-09-07T16:14:17.672Z,56.25
2022-09-07T16:19:34.633Z,56.35
2022-09-07T16:22:01.910Z,56.14
2022-09-07T16:24:28.637Z,56.48
2022-09-07T16:26:55.507Z,56.23
2022-09-07T16:29:22.063Z,56.43
2022-09-07T16:34:35.329Z,56.09
2022-09-07T16:37:02.001Z,56.24
2022-09-07T16:39:29.231Z,55.60
2022-09-07T16:41:55.987Z,56.74
2022-09-07T16:44:22.637Z,55.60
2022-09-07T16:46:50.447Z,55.33
2022-09-07T16:49:17.745Z,55.49
2022-09-07T16:51:45.790Z,56.03
2022-09-07T16:54:13.697Z,55.97
2022-09-07T16:56:40.220Z,56.38
2022-09-07T16:59:09.686Z,56.28
2022-09-07T17:01:37.937Z,57.35
2022-09-07T17:04:10.425Z,57.20
2022-09-07T17:09:04.543Z,57.15
2022-09-07T17:11:34.148Z,57.82
2022-09-07T17:14:01.257Z,57.65
2022-09-07T17:21:53.690Z,58.16
2022-09-07T17:24:20.688Z,58.23
2022-09-07T17:26:47.257Z,58.14
2022-09-07T17:29:13.811Z,57.81
2022-09-07T17:34:28.381Z,58.18
2022-09-07T17:36:55.723Z,58.36
2022-09-07T17:39:22.255Z,58.07
2022-09-07T17:41:52.718Z,58.18
2022-09-07T17:44:19.432Z,58.34
2022-09-07T17:46:46.000Z,58.87
2022-09-07T17:49:14.533Z,59.18
2022-09-07T17:51:41.399Z,59.18
2022-09-07T17:54:11.987Z,59.42
2022-09-07T17:56:40.134Z,59.82
2022-09-07T18:01:54.286Z,59.89
2022-09-07T18:04:21.644Z,59.90
2022-09-07T18:06:48.420Z,60.42
2022-09-07T18:09:15.040Z,60.28
2022-09-07T18:11:45.512Z,60.37
2022-09-07T18:14:14.462Z,60.77
2022-09-07T18:16:41.827Z,60.78
2022-09-07T18:19:08.713Z,60.61
2022-09-07T18:21:37.831Z,61.28
2022-09-07T18:24:08.251Z,60.99
2022-09-07T18:26:39.058Z,61.40
2022-09-07T18:29:18.793Z,61.42
2022-09-07T18:31:53.684Z,61.62
2022-09-07T18:34:20.672Z,61.79
2022-09-07T18:36:47.427Z,61.81
2022-09-07T18:39:14.064Z,61.79
2022-09-07T18:41:40.867Z,62.16
2022-09-07T18:45:27.019Z,62.44
2022-09-07T18:46:54.638Z,62.37
2022-09-07T18:49:21.157Z,62.46
2022-09-07T18:54:34.269Z,62.31
2022-09-07T18:57:00.791Z,62.14
2022-09-07T18:59:27.362Z,62.37
2022-09-07T19:01:54.479Z,62.13
2022-09-07T19:04:22.524Z,62.62
2022-09-07T19:06:49.297Z,62.53
2022-09-07T19:09:15.800Z,62.73
2022-09-07T19:11:42.574Z,62.62
2022-09-07T19:14:09.249Z,62.55
2022-09-07T19:16:36.365Z,62.73
2022-09-07T19:19:06.304Z,63.04
2022-09-07T19:21:35.948Z,62.56
2022-09-07T19:24:04.173Z,63.49
2022-09-07T19:26:35.448Z,63.13
2022-09-07T19:29:04.621Z,63.43
2022-09-07T19:31:31.609Z,62.60
2022-09-07T19:34:00.161Z,63.09
2022-09-07T19:36:30.170Z,62.64
2022-09-07T19:38:56.725Z,63.55
2022-09-07T19:41:23.502Z,62.87
2022-09-07T19:43:50.490Z,63.19
2022-09-07T19:46:22.719Z,63.45
2022-09-07T19:48:52.130Z,63.18
2022-09-07T19:51:19.898Z,63.05
2022-09-07T19:53:47.448Z,63.65
2022-09-07T19:56:16.905Z,62.81
2022-09-07T19:58:44.825Z,63.51
2022-09-07T20:01:16.168Z,63.62
2022-09-07T20:03:43.968Z,63.62
2022-09-07T20:06:14.677Z,63.66
2022-09-07T20:08:42.769Z,63.64
2022-09-07T20:11:11.945Z,63.98
2022-09-07T20:13:39.801Z,63.82
2022-09-07T20:16:09.439Z,64.21
2022-09-07T20:18:36.206Z,64.49
2022-09-07T20:21:05.096Z,63.65
2022-09-07T20:23:32.185Z,64.28
2022-09-07T20:26:00.808Z,63.66
2022-09-07T20:28:28.000Z,63.65
2022-09-07T20:30:54.716Z,64.17
2022-09-07T20:33:21.747Z,64.43
2022-09-07T20:35:49.209Z,64.38
2022-09-07T20:38:17.684Z,64.63
2022-09-07T20:40:53.827Z,64.52
2022-09-07T20:43:21.012Z,64.55
2022-09-07T20:45:47.769Z,64.05
2022-09-07T20:48:14.610Z,64.28
2022-09-07T20:50:41.373Z,65.36
2022-09-07T20:53:08.475Z,65.29
2022-09-07T20:55:36.007Z,65.30
2022-09-07T20:58:03.136Z,64.73
2022-09-07T21:00:29.767Z,65.12
2022-09-07T21:02:56.504Z,65.17
2022-09-07T21:05:23.060Z,65.04
2022-09-07T21:07:49.610Z,66.20
2022-09-07T21:10:16.211Z,65.37
2022-09-07T21:12:42.829Z,65.79
2022-09-07T21:15:09.864Z,66.05
2022-09-07T21:17:36.455Z,66.28
2022-09-07T21:20:03.191Z,65.73
2022-09-07T21:22:30.948Z,66.15
2022-09-07T21:24:57.701Z,66.38
2022-09-07T21:27:24.248Z,66.26
2022-09-07T21:29:51.179Z,65.92
2022-09-07T21:32:17.690Z,66.20
2022-09-07T21:34:44.192Z,65.71
2022-09-07T21:37:10.764Z,66.13
2022-09-07T21:39:37.341Z,66.68
2022-09-07T21:42:04.495Z,66.63
2022-09-07T21:44:31.017Z,66.64
2022-09-07T21:46:57.641Z,67.18
2022-09-07T21:49:24.216Z,67.36
2022-09-07T21:51:50.721Z,67.24
2022-09-07T21:54:17.249Z,67.17
2022-09-07T21:56:46.652Z,67.50
2022-09-07T21:59:13.908Z,67.92
2022-09-07T22:01:40.969Z,67.61
2022-09-07T22:04:07.628Z,68.34
2022-09-07T22:06:34.624Z,68.17
2022-09-07T22:09:01.918Z,67.71
2022-09-07T22:11:29.800Z,67.86
2022-09-07T22:13:58.870Z,67.68
2022-09-07T22:16:25.485Z,68.37
2022-09-07T22:18:52.567Z,68.15
2022-09-07T22:21:24.008Z,68.60
2022-09-07T22:23:54.364Z,68.74
2022-09-07T22:26:23.855Z,68.66
2022-09-07T22:28:50.921Z,69.03
2022-09-07T22:33:56.815Z,69.69
2022-09-07T22:36:27.956Z,70.62
2022-09-07T22:38:56.390Z,69.95
2022-09-07T22:41:26.404Z,70.19
2022-09-07T22:43:53.101Z,70.50
2022-09-07T22:46:21.270Z,69.57
2022-09-07T22:48:48.772Z,69.72
2022-09-07T22:51:16.236Z,69.94
2022-09-07T22:53:43.574Z,70.36
2022-09-07T22:56:16.749Z,69.89
2022-09-07T22:58:48.287Z,69.75
2022-09-07T23:01:15.487Z,69.98
2022-09-07T23:03:43.841Z,69.60
2022-09-07T23:06:50.294Z,69.96
2022-09-07T23:14:30.996Z,70.14
2022-09-07T23:16:57.528Z,69.63
2022-09-07T23:19:24.073Z,70.63
2022-09-07T23:21:50.642Z,70.41
2022-09-07T23:24:18.833Z,70.59
2022-09-07T23:26:46.927Z,70.49
2022-09-07T23:29:14.700Z,71.00
2022-09-07T23:31:41.583Z,70.51
2022-09-07T23:34:08.436Z,70.90
2022-09-07T23:36:35.008Z,71.03
2022-09-07T23:39:01.715Z,71.49
2022-09-07T23:41:28.871Z,71.40
2022-09-07T23:43:55.823Z,71.55
2022-09-07T23:46:23.000Z,71.33
2022-09-07T23:48:50.307Z,71.87
2022-09-07T23:51:22.789Z,71.69
2022-09-07T23:53:51.155Z,71.46
2022-09-07T23:56:17.695Z,71.94
2022-09-07T23:58:44.240Z,71.12
